createdAt,value
2019-01-23T00:00:01.283Z,113.12
2019-01-23T00:00:32.449Z,118.02
2019-01-23T00:01:03.620Z,116.22
2019-01-23T00:01:34.796Z,116.70
2019-01-23T00:02:05.970Z,113.25
2019-01-23T00:02:37.169Z,117.90
2019-01-23T00:03:08.419Z,108.90
2019-01-23T00:03:39.614Z,112.90
2019-01-23T00:04:10.797Z,108.00
2019-01-23T00:04:41.975Z,110.20
2019-01-23T00:05:13.236Z,128.97
2019-01-23T00:05:44.426Z,114.42
2019-01-23T00:06:15.598Z,102.60
2019-01-23T00:06:46.767Z,101.80
2019-01-23T00:07:17.957Z,107.30
2019-01-23T00:07:49.191Z,102.00
2019-01-23T00:08:20.428Z,99.17
2019-01-23T00:08:51.626Z,107.35
2019-01-23T00:09:22.802Z,103.27
2019-01-23T00:09:54.292Z,106.25
2019-01-23T00:10:25.488Z,99.40
2019-01-23T00:10:56.656Z,98.12
2019-01-23T00:11:27.845Z,102.12
2019-01-23T00:11:59.020Z,96.78
2019-01-23T00:12:30.204Z,99.07
2019-01-23T00:13:01.464Z,100.07
2019-01-23T00:13:32.677Z,99.75
2019-01-23T00:14:03.858Z,101.62
2019-01-23T00:14:35.071Z,104.25
2019-01-23T00:15:06.248Z,107.43
2019-01-23T00:15:37.416Z,100.58
2019-01-23T00:16:09.665Z,100.92
2019-01-23T00:16:40.887Z,102.50
2019-01-23T00:17:12.902Z,92.53
2019-01-23T00:17:44.102Z,93.72
2019-01-23T00:18:15.264Z,95.07
2019-01-23T00:18:46.431Z,94.65
2019-01-23T00:19:17.610Z,86.95
2019-01-23T00:19:48.773Z,93.33
2019-01-23T00:20:20.015Z,86.55
2019-01-23T00:20:51.189Z,83.87
2019-01-23T00:21:22.382Z,85.28
2019-01-23T00:21:53.578Z,85.90
2019-01-23T00:22:24.775Z,86.08
2019-01-23T00:22:55.967Z,89.85
2019-01-23T00:23:27.183Z,90.95
2019-01-23T00:23:58.350Z,87.72
2019-01-23T00:24:29.525Z,87.35
2019-01-23T00:25:00.684Z,91.20
2019-01-23T00:25:31.914Z,88.20
2019-01-23T00:26:03.109Z,86.63
2019-01-23T00:26:34.272Z,83.75
2019-01-23T00:27:05.430Z,82.40
2019-01-23T00:27:36.613Z,83.30
2019-01-23T00:28:07.821Z,84.22
2019-01-23T00:28:42.459Z,82.40
2019-01-23T00:29:11.989Z,77.67
2019-01-23T00:29:43.175Z,82.65
2019-01-23T00:30:14.428Z,78.97
2019-01-23T00:30:45.614Z,80.03
2019-01-23T00:31:16.860Z,78.22
2019-01-23T00:31:48.034Z,81.40
2019-01-23T00:32:19.208Z,77.50
2019-01-23T00:32:50.468Z,76.65
2019-01-23T00:33:21.635Z,79.45
2019-01-23T00:33:52.841Z,79.20
2019-01-23T00:34:24.032Z,81.82
2019-01-23T00:34:55.219Z,81.22
2019-01-23T00:35:26.434Z,75.30
2019-01-23T00:35:57.590Z,83.87
2019-01-23T00:36:28.799Z,79.15
2019-01-23T00:37:00.024Z,82.80
2019-01-23T00:37:31.198Z,85.42
2019-01-23T00:38:02.415Z,86.05
2019-01-23T00:38:33.606Z,81.90
2019-01-23T00:39:04.805Z,80.45
2019-01-23T00:39:35.968Z,88.58
2019-01-23T00:40:07.156Z,90.42
2019-01-23T00:40:38.357Z,88.05
2019-01-23T00:41:09.580Z,92.70
2019-01-23T00:41:40.746Z,80.60
2019-01-23T00:42:11.923Z,84.50
2019-01-23T00:42:43.090Z,89.70
2019-01-23T00:43:14.326Z,85.00
2019-01-23T00:43:45.537Z,84.40
2019-01-23T00:44:16.750Z,87.10
2019-01-23T00:44:47.914Z,84.85
2019-01-23T00:45:19.100Z,89.85
2019-01-23T00:45:50.302Z,84.70
2019-01-23T00:46:21.488Z,85.12
2019-01-23T00:46:52.692Z,88.82
2019-01-23T00:47:23.870Z,81.87
2019-01-23T00:47:55.077Z,85.42
2019-01-23T00:48:26.295Z,81.95
2019-01-23T00:48:57.471Z,88.33
2019-01-23T00:49:28.684Z,91.47
2019-01-23T00:49:59.848Z,90.83
2019-01-23T00:50:31.027Z,99.37
2019-01-23T00:51:02.267Z,92.37
2019-01-23T00:51:34.535Z,92.27
2019-01-23T00:52:05.715Z,100.22
2019-01-23T00:52:36.888Z,100.75
2019-01-23T00:53:08.061Z,111.88
2019-01-23T00:53:39.232Z,96.90
2019-01-23T00:54:10.442Z,102.55
2019-01-23T00:54:41.672Z,105.00
2019-01-23T00:55:12.854Z,103.42
2019-01-23T00:55:44.046Z,116.73
2019-01-23T00:56:15.230Z,104.60
2019-01-23T00:56:46.439Z,110.32
2019-01-23T00:57:17.651Z,112.75
2019-01-23T00:57:48.912Z,114.75
2019-01-23T00:58:20.113Z,108.05
2019-01-23T00:58:51.314Z,111.17
2019-01-23T00:59:24.633Z,114.80
2019-01-23T00:59:55.838Z,116.82
2019-01-23T01:00:27.040Z,110.55
2019-01-23T01:00:58.216Z,119.28
2019-01-23T01:01:29.392Z,116.95
2019-01-23T01:02:00.552Z,119.22
2019-01-23T01:02:32.097Z,114.57
2019-01-23T01:03:03.281Z,125.92
2019-01-23T01:03:34.486Z,120.20
2019-01-23T01:04:05.684Z,118.05
2019-01-23T01:04:36.899Z,109.32
2019-01-23T01:05:08.078Z,122.50
2019-01-23T01:05:39.293Z,114.00
2019-01-23T01:06:10.506Z,107.65
2019-01-23T01:06:41.668Z,112.72
2019-01-23T01:07:12.856Z,116.22
2019-01-23T01:07:44.038Z,115.90
2019-01-23T01:08:15.223Z,113.55
2019-01-23T01:08:46.478Z,114.72
2019-01-23T01:09:17.649Z,109.65
2019-01-23T01:09:48.832Z,109.00
2019-01-23T01:10:20.046Z,103.22
2019-01-23T01:10:51.683Z,107.50
2019-01-23T01:11:22.869Z,107.22
2019-01-23T01:11:54.042Z,110.28
2019-01-23T01:12:25.247Z,112.00
2019-01-23T01:12:56.459Z,110.48
2019-01-23T01:13:27.719Z,115.28
2019-01-23T01:13:58.893Z,114.67
2019-01-23T01:14:30.083Z,106.27
2019-01-23T01:15:01.257Z,109.10
2019-01-23T01:15:32.457Z,117.80
2019-01-23T01:16:03.686Z,121.65
2019-01-23T01:16:34.863Z,110.68
2019-01-23T01:17:06.049Z,114.15
2019-01-23T01:17:37.243Z,104.78
2019-01-23T01:18:08.473Z,114.77
2019-01-23T01:18:39.704Z,110.55
2019-01-23T01:19:10.893Z,115.30
2019-01-23T01:19:42.083Z,125.25
2019-01-23T01:20:13.313Z,109.07
2019-01-23T01:20:44.532Z,107.87
2019-01-23T01:21:15.806Z,105.22
2019-01-23T01:21:46.982Z,102.92
2019-01-23T01:22:18.197Z,103.55
2019-01-23T01:22:49.405Z,103.00
2019-01-23T01:23:20.573Z,107.45
2019-01-23T01:23:51.786Z,97.50
2019-01-23T01:24:23.015Z,102.50
2019-01-23T01:24:54.195Z,101.90
2019-01-23T01:25:25.388Z,96.87
2019-01-23T01:25:56.540Z,93.17
2019-01-23T01:26:27.760Z,93.27
2019-01-23T01:26:58.941Z,99.03
2019-01-23T01:27:30.165Z,93.15
2019-01-23T01:28:01.314Z,98.03
2019-01-23T01:28:32.504Z,89.75
2019-01-23T01:29:03.713Z,94.37
2019-01-23T01:29:34.932Z,95.12
2019-01-23T01:30:06.107Z,95.45
2019-01-23T01:30:37.295Z,93.60
2019-01-23T01:31:08.468Z,97.88
2019-01-23T01:31:39.682Z,96.90
2019-01-23T01:32:10.859Z,97.88
2019-01-23T01:32:42.091Z,101.40
2019-01-23T01:33:13.262Z,97.15
2019-01-23T01:33:44.451Z,102.02
2019-01-23T01:34:15.641Z,103.32
2019-01-23T01:34:46.816Z,102.38
2019-01-23T01:35:17.984Z,97.78
2019-01-23T01:35:49.203Z,104.40
2019-01-23T01:36:20.362Z,104.12
2019-01-23T01:36:51.578Z,99.20
2019-01-23T01:37:22.731Z,95.87
2019-01-23T01:37:53.962Z,99.45
2019-01-23T01:38:25.133Z,99.13
2019-01-23T01:38:56.302Z,98.00
2019-01-23T01:39:27.521Z,101.27
2019-01-23T01:39:58.695Z,98.07
2019-01-23T01:40:29.870Z,98.50
2019-01-23T01:41:01.042Z,97.42
2019-01-23T01:41:32.226Z,91.37
2019-01-23T01:42:03.395Z,101.78
2019-01-23T01:42:34.573Z,99.97
2019-01-23T01:43:05.789Z,91.60
2019-01-23T01:43:36.964Z,85.70
2019-01-23T01:44:08.146Z,94.45
2019-01-23T01:44:39.373Z,91.80
2019-01-23T01:45:10.556Z,87.12
2019-01-23T01:45:41.742Z,90.38
2019-01-23T01:46:12.901Z,91.63
2019-01-23T01:46:44.095Z,89.58
2019-01-23T01:47:15.281Z,96.80
2019-01-23T01:47:46.461Z,93.27
2019-01-23T01:48:17.690Z,89.92
2019-01-23T01:48:48.860Z,97.15
2019-01-23T01:49:20.026Z,93.00
2019-01-23T01:49:51.193Z,94.07
2019-01-23T01:50:22.443Z,92.25
2019-01-23T01:50:53.604Z,91.05
2019-01-23T01:51:24.820Z,91.45
2019-01-23T01:51:56.051Z,88.30
2019-01-23T01:52:27.223Z,90.80
2019-01-23T01:52:58.410Z,90.87
2019-01-23T01:53:29.587Z,87.78
2019-01-23T01:54:00.801Z,91.30
2019-01-23T01:54:31.979Z,90.38
2019-01-23T01:55:03.152Z,83.62
2019-01-23T01:55:34.348Z,82.92
2019-01-23T01:56:05.523Z,89.40
2019-01-23T01:56:36.739Z,93.45
2019-01-23T01:57:07.916Z,103.15
2019-01-23T01:57:39.105Z,92.75
2019-01-23T01:58:10.406Z,96.32
2019-01-23T01:58:41.563Z,89.77
2019-01-23T01:59:12.791Z,90.38
2019-01-23T01:59:43.985Z,93.62
2019-01-23T02:00:15.148Z,89.87
2019-01-23T02:00:46.330Z,89.90
2019-01-23T02:01:17.499Z,95.57
2019-01-23T02:01:48.665Z,94.90
2019-01-23T02:02:19.857Z,88.50
2019-01-23T02:02:51.036Z,90.53
2019-01-23T02:03:22.254Z,85.38
2019-01-23T02:03:53.486Z,89.80
2019-01-23T02:04:24.693Z,93.12
2019-01-23T02:04:55.868Z,96.60
2019-01-23T02:05:27.057Z,89.10
2019-01-23T02:05:58.281Z,100.53
2019-01-23T02:06:29.446Z,91.75
2019-01-23T02:07:00.605Z,94.22
2019-01-23T02:07:31.796Z,100.53
2019-01-23T02:08:03.013Z,97.90
2019-01-23T02:08:34.225Z,98.03
2019-01-23T02:09:05.480Z,92.92
2019-01-23T02:09:36.668Z,91.28
2019-01-23T02:10:07.872Z,94.83
2019-01-23T02:10:39.119Z,93.35
2019-01-23T02:11:10.300Z,98.92
2019-01-23T02:11:41.491Z,99.03
2019-01-23T02:12:12.659Z,96.42
2019-01-23T02:12:43.857Z,92.88
2019-01-23T02:13:15.037Z,94.13
2019-01-23T02:13:46.227Z,99.30
2019-01-23T02:14:17.451Z,98.90
2019-01-23T02:14:48.622Z,91.63
2019-01-23T02:15:19.794Z,99.52
2019-01-23T02:15:51.017Z,95.42
2019-01-23T02:16:22.215Z,94.10
2019-01-23T02:16:53.392Z,86.05
2019-01-23T02:17:24.560Z,95.03
2019-01-23T02:17:55.797Z,91.97
2019-01-23T02:18:26.988Z,98.25
2019-01-23T02:18:58.150Z,98.65
2019-01-23T02:19:29.343Z,102.80
2019-01-23T02:20:00.540Z,99.37
2019-01-23T02:20:31.702Z,95.85
2019-01-23T02:21:02.891Z,95.35
2019-01-23T02:21:34.138Z,93.42
2019-01-23T02:22:05.301Z,92.45
2019-01-23T02:22:38.799Z,94.58
2019-01-23T02:23:10.982Z,93.00
2019-01-23T02:23:42.346Z,81.22
2019-01-23T02:24:13.883Z,92.95
2019-01-23T02:24:45.113Z,96.75
2019-01-23T02:25:16.280Z,93.15
2019-01-23T02:25:47.459Z,95.35
2019-01-23T02:26:18.669Z,89.30
2019-01-23T02:26:49.912Z,90.90
2019-01-23T02:27:21.034Z,88.65
2019-01-23T02:27:53.246Z,88.67
2019-01-23T02:28:24.433Z,91.75
2019-01-23T02:28:55.634Z,85.95
2019-01-23T02:29:26.807Z,86.25
2019-01-23T02:29:58.045Z,86.08
2019-01-23T02:30:29.246Z,82.72
2019-01-23T02:31:00.404Z,84.55
2019-01-23T02:31:31.603Z,84.37
2019-01-23T02:32:02.776Z,87.55
2019-01-23T02:32:33.964Z,84.52
2019-01-23T02:33:05.155Z,88.37
2019-01-23T02:33:37.342Z,85.00
2019-01-23T02:34:08.534Z,86.22
2019-01-23T02:34:39.740Z,85.10
2019-01-23T02:35:10.982Z,86.08
2019-01-23T02:35:42.192Z,91.10
2019-01-23T02:36:13.358Z,87.72
2019-01-23T02:36:44.550Z,88.70
2019-01-23T02:37:15.737Z,88.65
2019-01-23T02:37:46.927Z,85.67
2019-01-23T02:38:18.150Z,89.07
2019-01-23T02:38:49.336Z,84.00
2019-01-23T02:39:20.547Z,90.92
2019-01-23T02:39:51.753Z,87.97
2019-01-23T02:40:22.987Z,87.22
2019-01-23T02:40:54.170Z,79.90
2019-01-23T02:41:25.380Z,80.72
2019-01-23T02:41:56.595Z,79.53
2019-01-23T02:42:27.753Z,83.67
2019-01-23T02:42:58.939Z,83.85
2019-01-23T02:43:30.150Z,87.60
2019-01-23T02:44:01.318Z,89.75
2019-01-23T02:44:32.486Z,82.27
2019-01-23T02:45:03.710Z,94.03
2019-01-23T02:45:34.878Z,95.67
2019-01-23T02:46:06.069Z,97.20
2019-01-23T02:46:38.221Z,86.42
2019-01-23T02:47:09.400Z,93.42
2019-01-23T02:47:40.667Z,94.90
2019-01-23T02:48:11.823Z,95.55
2019-01-23T02:48:43.017Z,97.42
2019-01-23T02:49:14.171Z,97.85
2019-01-23T02:49:45.355Z,95.32
2019-01-23T02:50:17.445Z,102.47
2019-01-23T02:50:48.661Z,101.05
2019-01-23T02:51:20.038Z,95.55
2019-01-23T02:51:51.231Z,97.22
2019-01-23T02:52:22.449Z,91.10
2019-01-23T02:52:53.651Z,91.70
2019-01-23T02:53:24.886Z,89.00
2019-01-23T02:53:56.064Z,95.92
2019-01-23T02:54:27.336Z,94.83
2019-01-23T02:54:58.499Z,99.67
2019-01-23T02:55:29.664Z,94.90
2019-01-23T02:56:00.844Z,102.32
2019-01-23T02:56:32.057Z,108.95
2019-01-23T02:57:03.249Z,112.42
2019-01-23T02:57:34.447Z,95.15
2019-01-23T02:58:05.607Z,107.17
2019-01-23T02:58:36.823Z,98.33
2019-01-23T02:59:08.010Z,98.87
2019-01-23T02:59:39.267Z,100.07
2019-01-23T03:00:10.429Z,92.85
2019-01-23T03:00:41.625Z,99.92
2019-01-23T03:01:12.805Z,103.05
2019-01-23T03:01:43.989Z,100.55
2019-01-23T03:02:15.162Z,122.45
2019-01-23T03:02:48.614Z,119.08
2019-01-23T03:03:19.827Z,103.53
2019-01-23T03:03:51.045Z,105.32
2019-01-23T03:04:22.243Z,102.02
2019-01-23T03:04:53.478Z,101.78
2019-01-23T03:05:24.657Z,111.30
2019-01-23T03:05:55.912Z,117.37
2019-01-23T03:06:27.085Z,125.42
2019-01-23T03:06:58.270Z,153.72
2019-01-23T03:07:29.467Z,108.30
2019-01-23T03:08:00.666Z,110.65
2019-01-23T03:08:31.942Z,170.50
2019-01-23T03:09:03.142Z,113.12
2019-01-23T03:09:34.344Z,106.87
2019-01-23T03:10:05.577Z,121.33
2019-01-23T03:10:36.797Z,105.20
2019-01-23T03:11:07.988Z,120.85
2019-01-23T03:11:39.166Z,116.15
2019-01-23T03:12:10.467Z,106.17
2019-01-23T03:12:41.663Z,101.78
2019-01-23T03:13:12.849Z,111.45
2019-01-23T03:13:44.067Z,129.60
2019-01-23T03:14:15.186Z,146.40
2019-01-23T03:14:46.398Z,119.67
2019-01-23T03:15:17.576Z,115.60
2019-01-23T03:15:48.750Z,119.62
2019-01-23T03:16:19.927Z,228.75
2019-01-23T03:16:51.126Z,119.57
2019-01-23T03:17:22.344Z,158.70
2019-01-23T03:17:53.521Z,145.90
2019-01-23T03:18:24.700Z,277.90
2019-01-23T03:18:55.892Z,159.40
2019-01-23T03:19:27.071Z,132.93
2019-01-23T03:19:58.319Z,186.45
2019-01-23T03:20:29.527Z,182.93
2019-01-23T03:21:00.718Z,133.87
2019-01-23T03:21:31.928Z,146.28
2019-01-23T03:22:03.174Z,170.60
2019-01-23T03:22:36.789Z,174.18
2019-01-23T03:23:07.969Z,129.00
2019-01-23T03:23:39.159Z,163.57
2019-01-23T03:24:10.355Z,133.45
2019-01-23T03:24:41.549Z,179.65
2019-01-23T03:25:12.719Z,163.22
2019-01-23T03:25:43.908Z,124.18
2019-01-23T03:26:15.091Z,116.05
2019-01-23T03:26:46.297Z,206.75
2019-01-23T03:27:17.542Z,146.40
2019-01-23T03:27:48.734Z,192.18
2019-01-23T03:28:19.919Z,147.05
2019-01-23T03:28:51.098Z,138.12
2019-01-23T03:29:24.643Z,179.50
2019-01-23T03:29:55.168Z,234.20
2019-01-23T03:30:26.422Z,177.93
2019-01-23T03:30:57.578Z,175.03
2019-01-23T03:31:28.800Z,181.30
2019-01-23T03:31:59.998Z,139.57
2019-01-23T03:32:31.246Z,143.28
2019-01-23T03:33:02.447Z,158.03
2019-01-23T03:33:33.660Z,155.27
2019-01-23T03:34:04.825Z,130.63
2019-01-23T03:34:36.034Z,156.80
2019-01-23T03:35:07.224Z,128.65
2019-01-23T03:35:38.419Z,171.07
2019-01-23T03:36:09.587Z,143.15
2019-01-23T03:36:40.761Z,251.15
2019-01-23T03:37:11.920Z,162.30
2019-01-23T03:37:43.107Z,181.10
2019-01-23T03:38:14.269Z,213.72
2019-01-23T03:38:45.493Z,191.22
2019-01-23T03:39:16.663Z,151.12
2019-01-23T03:39:47.831Z,148.60
2019-01-23T03:40:19.036Z,152.07
2019-01-23T03:40:50.214Z,145.53
2019-01-23T03:41:21.398Z,147.17
2019-01-23T03:41:52.617Z,152.10
2019-01-23T03:42:23.790Z,148.90
2019-01-23T03:42:55.022Z,209.65
2019-01-23T03:43:26.262Z,258.68
2019-01-23T03:43:57.433Z,178.55
2019-01-23T03:44:28.614Z,133.65
2019-01-23T03:44:59.781Z,140.45
2019-01-23T03:45:31.003Z,142.77
2019-01-23T03:46:02.209Z,135.18
2019-01-23T03:46:33.367Z,138.70
2019-01-23T03:47:04.546Z,134.07
2019-01-23T03:47:35.709Z,143.55
2019-01-23T03:48:06.923Z,153.40
2019-01-23T03:48:38.073Z,143.37
2019-01-23T03:49:09.290Z,144.65
2019-01-23T03:49:40.505Z,142.62
2019-01-23T03:50:11.681Z,151.27
2019-01-23T03:50:43.181Z,145.30
2019-01-23T03:51:14.374Z,153.32
2019-01-23T03:51:45.545Z,140.55
2019-01-23T03:52:16.733Z,137.22
2019-01-23T03:52:47.909Z,198.72
2019-01-23T03:53:19.164Z,167.72
2019-01-23T03:53:50.377Z,137.80
2019-01-23T03:54:21.566Z,135.20
2019-01-23T03:54:52.739Z,135.80
2019-01-23T03:55:23.993Z,151.35
2019-01-23T03:55:55.187Z,148.72
2019-01-23T03:56:26.425Z,184.45
2019-01-23T03:56:57.652Z,141.50
2019-01-23T03:57:28.891Z,147.50
2019-01-23T03:58:00.079Z,133.27
2019-01-23T03:58:31.244Z,141.73
2019-01-23T03:59:04.567Z,152.10
2019-01-23T03:59:35.731Z,156.35
2019-01-23T04:00:06.916Z,158.90
2019-01-23T04:00:38.131Z,146.45
2019-01-23T04:01:09.330Z,160.05
2019-01-23T04:01:40.494Z,154.47
2019-01-23T04:02:11.667Z,215.25
2019-01-23T04:02:42.869Z,148.70
2019-01-23T04:03:14.041Z,150.72
2019-01-23T04:03:45.225Z,140.77
2019-01-23T04:04:16.406Z,165.85
2019-01-23T04:04:47.596Z,147.30
2019-01-23T04:05:18.842Z,153.42
2019-01-23T04:05:50.025Z,147.78
2019-01-23T04:06:21.226Z,131.07
2019-01-23T04:06:52.408Z,138.92
2019-01-23T04:07:23.582Z,134.93
2019-01-23T04:07:54.750Z,139.10
2019-01-23T04:08:25.940Z,143.05
2019-01-23T04:08:57.120Z,137.35
2019-01-23T04:09:28.295Z,137.37
2019-01-23T04:09:59.497Z,138.90
2019-01-23T04:10:30.725Z,130.37
2019-01-23T04:11:01.906Z,134.52
2019-01-23T04:11:33.106Z,131.85
2019-01-23T04:12:04.336Z,146.72
2019-01-23T04:12:35.512Z,134.32
2019-01-23T04:13:06.723Z,135.88
2019-01-23T04:13:37.882Z,134.60
2019-01-23T04:14:09.104Z,137.25
2019-01-23T04:14:40.279Z,159.63
2019-01-23T04:15:11.472Z,140.10
2019-01-23T04:15:42.663Z,145.97
2019-01-23T04:16:13.874Z,151.42
2019-01-23T04:16:45.122Z,158.27
2019-01-23T04:17:16.295Z,170.87
2019-01-23T04:17:47.512Z,151.55
2019-01-23T04:18:18.728Z,168.95
2019-01-23T04:18:49.972Z,144.82
2019-01-23T04:19:21.153Z,143.45
2019-01-23T04:19:52.355Z,148.02
2019-01-23T04:20:23.596Z,153.40
2019-01-23T04:20:54.843Z,152.32
2019-01-23T04:21:26.015Z,147.80
2019-01-23T04:21:57.195Z,144.32
2019-01-23T04:22:28.391Z,140.70
2019-01-23T04:22:59.638Z,157.37
2019-01-23T04:23:30.931Z,146.50
2019-01-23T04:24:02.130Z,150.78
2019-01-23T04:24:33.330Z,144.25
2019-01-23T04:25:04.517Z,150.18
2019-01-23T04:25:35.733Z,163.22
2019-01-23T04:26:06.954Z,143.62
2019-01-23T04:26:38.133Z,152.15
2019-01-23T04:27:09.310Z,148.97
2019-01-23T04:27:40.527Z,150.72
2019-01-23T04:28:11.796Z,158.32
2019-01-23T04:28:42.968Z,170.02
2019-01-23T04:29:14.170Z,181.57
2019-01-23T04:29:45.365Z,168.68
2019-01-23T04:30:16.593Z,177.68
2019-01-23T04:30:47.824Z,173.00
2019-01-23T04:31:19.013Z,164.88
2019-01-23T04:31:50.197Z,186.47
2019-01-23T04:32:21.390Z,181.97
2019-01-23T04:32:52.592Z,201.82
2019-01-23T04:33:23.783Z,182.50
2019-01-23T04:33:54.994Z,171.90
2019-01-23T04:34:26.226Z,169.25
2019-01-23T04:34:57.405Z,173.55
2019-01-23T04:35:28.629Z,181.78
2019-01-23T04:35:59.824Z,186.67
2019-01-23T04:36:31.024Z,170.28
2019-01-23T04:37:02.237Z,180.42
2019-01-23T04:37:33.444Z,184.28
2019-01-23T04:38:04.714Z,188.62
2019-01-23T04:38:35.890Z,187.00
2019-01-23T04:39:07.065Z,179.60
2019-01-23T04:39:38.248Z,183.60
2019-01-23T04:40:09.422Z,187.82
2019-01-23T04:40:40.667Z,187.70
2019-01-23T04:41:11.867Z,178.25
2019-01-23T04:41:43.059Z,177.72
2019-01-23T04:42:14.265Z,176.35
2019-01-23T04:42:45.512Z,182.02
2019-01-23T04:43:16.700Z,162.12
2019-01-23T04:43:47.878Z,176.80
2019-01-23T04:44:19.068Z,164.05
2019-01-23T04:44:50.271Z,170.32
2019-01-23T04:45:21.455Z,153.78
2019-01-23T04:45:52.753Z,170.05
2019-01-23T04:46:23.954Z,160.07
2019-01-23T04:46:55.183Z,153.62
2019-01-23T04:47:26.386Z,169.47
2019-01-23T04:47:57.633Z,172.82
2019-01-23T04:48:28.883Z,158.68
2019-01-23T04:49:00.048Z,167.62
2019-01-23T04:49:31.243Z,160.25
2019-01-23T04:50:02.413Z,166.15
2019-01-23T04:50:33.580Z,155.03
2019-01-23T04:51:04.849Z,166.68
2019-01-23T04:51:36.921Z,165.10
2019-01-23T04:52:08.143Z,138.72
2019-01-23T04:52:39.320Z,137.62
2019-01-23T04:53:10.513Z,142.90
2019-01-23T04:53:41.702Z,158.18
2019-01-23T04:54:12.887Z,139.97
2019-01-23T04:54:44.097Z,152.75
2019-01-23T04:55:15.343Z,137.62
2019-01-23T04:55:46.527Z,143.90
2019-01-23T04:56:18.931Z,146.37
2019-01-23T04:56:50.144Z,145.45
2019-01-23T04:57:21.352Z,143.62
2019-01-23T04:57:52.564Z,140.92
2019-01-23T04:58:23.791Z,154.20
2019-01-23T04:58:54.961Z,139.20
2019-01-23T04:59:26.154Z,140.85
2019-01-23T04:59:57.334Z,151.25
2019-01-23T05:00:28.556Z,142.10
2019-01-23T05:00:59.791Z,132.45
2019-01-23T05:01:31.036Z,137.80
2019-01-23T05:02:02.230Z,146.18
2019-01-23T05:02:33.409Z,141.57
2019-01-23T05:03:04.594Z,136.03
2019-01-23T05:03:35.895Z,144.75
2019-01-23T05:04:09.161Z,149.97
2019-01-23T05:04:40.362Z,135.22
2019-01-23T05:05:11.605Z,151.75
2019-01-23T05:05:42.771Z,148.90
2019-01-23T05:06:13.965Z,142.95
2019-01-23T05:06:45.149Z,137.10
2019-01-23T05:07:16.320Z,138.90
2019-01-23T05:07:47.488Z,137.20
2019-01-23T05:08:18.700Z,140.03
2019-01-23T05:08:49.881Z,132.87
2019-01-23T05:09:21.075Z,135.12
2019-01-23T05:09:52.267Z,124.27
2019-01-23T05:10:23.496Z,131.65
2019-01-23T05:10:54.681Z,129.03
2019-01-23T05:11:25.883Z,130.67
2019-01-23T05:11:57.086Z,118.37
2019-01-23T05:12:28.291Z,135.85
2019-01-23T05:12:59.528Z,124.15
2019-01-23T05:13:30.708Z,127.27
2019-01-23T05:14:01.901Z,121.15
2019-01-23T05:14:33.074Z,120.77
2019-01-23T05:15:04.277Z,119.42
2019-01-23T05:15:35.481Z,119.22
2019-01-23T05:16:06.695Z,117.93
2019-01-23T05:16:37.869Z,119.60
2019-01-23T05:17:09.039Z,109.05
2019-01-23T05:17:40.205Z,113.42
2019-01-23T05:18:11.426Z,105.52
2019-01-23T05:18:42.642Z,104.07
2019-01-23T05:19:13.823Z,109.17
2019-01-23T05:19:45.044Z,113.08
2019-01-23T05:20:16.252Z,109.85
2019-01-23T05:20:47.442Z,109.30
2019-01-23T05:21:18.637Z,109.22
2019-01-23T05:21:49.803Z,107.95
2019-01-23T05:22:21.021Z,109.32
2019-01-23T05:22:52.253Z,111.08
2019-01-23T05:23:23.421Z,113.30
2019-01-23T05:23:54.623Z,103.42
2019-01-23T05:24:25.818Z,107.12
2019-01-23T05:24:57.005Z,109.55
2019-01-23T05:25:28.174Z,105.92
2019-01-23T05:25:59.371Z,99.03
2019-01-23T05:26:30.559Z,102.32
2019-01-23T05:27:01.734Z,103.55
2019-01-23T05:27:32.923Z,100.20
2019-01-23T05:28:04.081Z,108.27
2019-01-23T05:28:35.283Z,103.95
2019-01-23T05:29:06.547Z,100.70
2019-01-23T05:29:37.763Z,93.45
2019-01-23T05:30:08.942Z,99.75
2019-01-23T05:30:40.114Z,109.17
2019-01-23T05:31:11.296Z,98.85
2019-01-23T05:31:42.497Z,103.20
2019-01-23T05:32:13.733Z,103.35
2019-01-23T05:32:44.917Z,108.40
2019-01-23T05:33:16.104Z,112.28
2019-01-23T05:33:47.323Z,103.75
2019-01-23T05:34:18.583Z,113.32
2019-01-23T05:34:49.776Z,102.10
2019-01-23T05:35:20.966Z,102.95
2019-01-23T05:35:52.176Z,105.65
2019-01-23T05:36:23.364Z,103.60
2019-01-23T05:36:54.569Z,106.85
2019-01-23T05:37:25.807Z,99.05
2019-01-23T05:37:57.001Z,105.00
2019-01-23T05:38:28.201Z,102.22
2019-01-23T05:38:59.392Z,107.32
2019-01-23T05:39:30.600Z,106.25
2019-01-23T05:40:01.786Z,107.87
2019-01-23T05:40:32.969Z,102.62
2019-01-23T05:41:04.156Z,111.95
2019-01-23T05:41:35.442Z,105.40
2019-01-23T05:42:06.613Z,108.52
2019-01-23T05:42:37.790Z,105.50
2019-01-23T05:43:08.977Z,114.70
2019-01-23T05:43:40.166Z,102.02
2019-01-23T05:44:11.374Z,119.55
2019-01-23T05:44:42.610Z,103.78
2019-01-23T05:45:13.799Z,104.40
2019-01-23T05:45:44.990Z,106.07
2019-01-23T05:46:16.597Z,95.40
2019-01-23T05:46:47.798Z,97.62
2019-01-23T05:47:18.950Z,95.95
2019-01-23T05:47:50.168Z,100.42
2019-01-23T05:48:21.304Z,99.25
2019-01-23T05:48:52.505Z,100.85
2019-01-23T05:49:23.710Z,97.35
2019-01-23T05:49:55.207Z,102.72
2019-01-23T05:50:26.376Z,102.95
2019-01-23T05:50:57.607Z,104.15
2019-01-23T05:51:28.806Z,106.12
2019-01-23T05:52:00.010Z,95.83
2019-01-23T05:52:31.205Z,95.97
2019-01-23T05:53:02.387Z,103.67
2019-01-23T05:53:33.598Z,103.62
2019-01-23T05:54:04.805Z,103.15
2019-01-23T05:54:35.987Z,103.42
2019-01-23T05:55:07.183Z,104.85
2019-01-23T05:55:38.367Z,108.35
2019-01-23T05:56:09.629Z,109.90
2019-01-23T05:56:40.811Z,98.37
2019-01-23T05:57:11.991Z,102.32
2019-01-23T05:57:43.208Z,109.92
2019-01-23T05:58:14.423Z,108.27
2019-01-23T05:58:45.657Z,106.37
2019-01-23T05:59:16.827Z,111.97
2019-01-23T05:59:48.043Z,109.85
2019-01-23T06:00:19.277Z,108.45
2019-01-23T06:00:50.481Z,113.77
2019-01-23T06:01:21.700Z,114.15
2019-01-23T06:01:52.906Z,106.52
2019-01-23T06:02:24.108Z,110.70
2019-01-23T06:02:55.312Z,108.75
2019-01-23T06:03:26.485Z,106.37
2019-01-23T06:03:57.677Z,109.70
2019-01-23T06:04:28.831Z,109.03
2019-01-23T06:05:00.031Z,112.15
2019-01-23T06:05:31.211Z,108.63
2019-01-23T06:06:02.412Z,111.97
2019-01-23T06:06:33.645Z,113.50
2019-01-23T06:07:04.865Z,108.45
2019-01-23T06:07:36.049Z,110.12
2019-01-23T06:08:07.325Z,105.55
2019-01-23T06:08:38.504Z,117.17
2019-01-23T06:09:09.684Z,110.57
2019-01-23T06:09:40.867Z,106.63
2019-01-23T06:10:12.054Z,112.68
2019-01-23T06:10:43.335Z,113.12
2019-01-23T06:11:14.546Z,109.90
2019-01-23T06:11:45.791Z,110.35
2019-01-23T06:12:16.978Z,110.95
2019-01-23T06:12:48.164Z,105.63
2019-01-23T06:13:19.341Z,109.10
2019-01-23T06:13:50.524Z,107.80
2019-01-23T06:14:21.716Z,104.40
2019-01-23T06:14:52.921Z,106.52
2019-01-23T06:15:24.133Z,101.60
2019-01-23T06:15:55.362Z,106.67
2019-01-23T06:16:26.553Z,99.17
2019-01-23T06:16:57.791Z,104.97
2019-01-23T06:17:28.991Z,109.60
2019-01-23T06:18:00.180Z,108.17
2019-01-23T06:18:31.427Z,100.27
2019-01-23T06:19:02.628Z,113.90
2019-01-23T06:19:33.833Z,111.60
2019-01-23T06:20:05.007Z,103.83
2019-01-23T06:20:36.213Z,102.80
2019-01-23T06:21:07.395Z,104.95
2019-01-23T06:21:38.601Z,107.92
2019-01-23T06:22:09.846Z,106.92
2019-01-23T06:22:41.063Z,105.67
2019-01-23T06:23:12.298Z,109.50
2019-01-23T06:23:43.519Z,103.17
2019-01-23T06:24:14.732Z,101.10
2019-01-23T06:24:45.871Z,101.07
2019-01-23T06:25:17.075Z,99.15
2019-01-23T06:25:48.239Z,103.50
2019-01-23T06:26:19.389Z,97.62
2019-01-23T06:26:50.609Z,100.78
2019-01-23T06:27:21.786Z,101.33
2019-01-23T06:27:53.032Z,94.67
2019-01-23T06:28:24.209Z,107.72
2019-01-23T06:28:55.421Z,92.45
2019-01-23T06:29:26.593Z,99.95
2019-01-23T06:29:57.792Z,101.55
2019-01-23T06:30:28.962Z,105.67
2019-01-23T06:31:00.154Z,91.50
2019-01-23T06:31:31.374Z,94.97
2019-01-23T06:32:02.584Z,88.52
2019-01-23T06:32:33.807Z,95.72
2019-01-23T06:33:05.052Z,94.92
2019-01-23T06:33:36.221Z,91.12